createdAt,value
2018-05-11T00:02:00.400Z,11.27
2018-05-11T00:04:29.468Z,11.37
2018-05-11T00:06:57.743Z,8.83
2018-05-11T00:09:26.023Z,7.70
2018-05-11T00:11:54.514Z,12.50
2018-05-11T00:14:22.887Z,10.77
2018-05-11T00:16:51.916Z,10.00
2018-05-11T00:19:20.195Z,11.10
2018-05-11T00:21:48.455Z,10.83
2018-05-11T00:24:17.497Z,13.63
2018-05-11T00:26:45.786Z,9.73
2018-05-11T00:29:14.075Z,11.83
2018-05-11T00:31:42.336Z,11.57
2018-05-11T00:34:11.531Z,9.27
2018-05-11T00:36:39.806Z,10.90
2018-05-11T00:39:08.055Z,10.30
2018-05-11T00:41:36.342Z,11.40
2018-05-11T00:44:04.595Z,10.43
2018-05-11T00:46:33.627Z,12.10
2018-05-11T00:49:01.924Z,13.03
2018-05-11T00:51:30.191Z,11.20
2018-05-11T00:53:59.229Z,10.87
2018-05-11T00:56:27.571Z,11.37
2018-05-11T00:58:55.888Z,9.37
2018-05-11T01:01:24.977Z,11.37
2018-05-11T01:03:54.090Z,12.53
2018-05-11T01:06:23.154Z,10.73
2018-05-11T01:08:51.417Z,11.83
2018-05-11T01:11:19.703Z,12.93
2018-05-11T01:13:47.959Z,11.40
2018-05-11T01:16:16.264Z,11.60
2018-05-11T01:18:45.306Z,10.17
2018-05-11T01:21:13.573Z,11.03
2018-05-11T01:23:42.629Z,14.80
2018-05-11T01:26:10.890Z,11.47
2018-05-11T01:28:39.173Z,12.93
2018-05-11T01:31:07.428Z,11.53
2018-05-11T01:33:36.497Z,10.97
2018-05-11T01:36:04.770Z,13.17
2018-05-11T01:38:33.034Z,12.93
2018-05-11T01:41:02.882Z,11.87
2018-05-11T01:43:31.163Z,14.13
2018-05-11T01:46:00.278Z,15.63
2018-05-11T01:48:28.566Z,12.73
2018-05-11T01:50:56.879Z,13.23
2018-05-11T01:53:25.352Z,14.63
2018-05-11T01:55:53.637Z,13.40
2018-05-11T01:58:21.897Z,13.27
2018-05-11T02:00:50.173Z,14.02
2018-05-11T02:03:18.466Z,15.87
2018-05-11T02:05:46.734Z,17.00
2018-05-11T02:08:15.020Z,14.23
2018-05-11T02:10:43.314Z,15.10
2018-05-11T02:13:11.595Z,16.30
2018-05-11T02:15:39.892Z,13.53
2018-05-11T02:18:08.259Z,15.60
2018-05-11T02:20:36.529Z,15.93
2018-05-11T02:23:05.555Z,15.07
2018-05-11T02:25:33.853Z,13.47
2018-05-11T02:28:02.217Z,14.77
2018-05-11T02:30:31.269Z,15.57
2018-05-11T02:32:59.569Z,16.07
2018-05-11T02:35:27.866Z,13.80
2018-05-11T02:37:56.134Z,16.67
2018-05-11T02:40:24.504Z,14.47
2018-05-11T02:42:52.782Z,16.40
2018-05-11T02:45:21.086Z,14.43
2018-05-11T02:47:49.466Z,15.97
2018-05-11T02:50:17.766Z,15.73
2018-05-11T02:52:46.030Z,14.47
2018-05-11T02:55:15.112Z,15.37
2018-05-11T02:57:43.372Z,15.53
2018-05-11T03:00:11.749Z,13.87
2018-05-11T03:02:40.047Z,17.93
2018-05-11T03:05:08.296Z,18.60
2018-05-11T03:07:37.335Z,16.60
2018-05-11T03:10:05.711Z,16.63
2018-05-11T03:12:34.763Z,12.63
2018-05-11T03:15:03.125Z,19.93
2018-05-11T03:17:31.403Z,18.60
2018-05-11T03:20:00.522Z,18.00
2018-05-11T03:22:28.799Z,17.93
2018-05-11T03:24:57.915Z,18.37
2018-05-11T03:27:26.969Z,16.20
2018-05-11T03:29:54.597Z,17.00
2018-05-11T03:32:23.661Z,14.57
2018-05-11T03:34:51.934Z,14.93
2018-05-11T03:37:20.213Z,17.37
2018-05-11T03:39:48.503Z,20.37
2018-05-11T03:42:16.749Z,16.70
2018-05-11T03:44:45.784Z,18.70
2018-05-11T03:47:14.071Z,15.33
2018-05-11T03:49:42.333Z,17.43
2018-05-11T03:52:10.583Z,19.00
2018-05-11T03:54:38.844Z,19.00
2018-05-11T03:57:07.121Z,16.40
2018-05-11T03:59:36.164Z,17.03
2018-05-11T04:02:22.463Z,18.10
2018-05-11T04:05:08.608Z,18.77
2018-05-11T04:07:54.806Z,17.05
2018-05-11T04:10:23.991Z,18.50
2018-05-11T04:12:52.385Z,20.93
2018-05-11T04:18:17.805Z,17.10
2018-05-11T04:20:46.091Z,19.57
2018-05-11T04:23:14.332Z,17.67
2018-05-11T04:25:42.644Z,18.87
2018-05-11T04:28:10.915Z,22.13
2018-05-11T04:30:39.205Z,19.83
2018-05-11T04:33:07.570Z,18.97
2018-05-11T04:35:36.591Z,19.53
2018-05-11T04:38:04.879Z,22.10
2018-05-11T04:40:33.144Z,19.00
2018-05-11T04:43:02.193Z,20.90
2018-05-11T04:45:30.575Z,19.07
2018-05-11T04:47:58.872Z,21.13
2018-05-11T04:50:27.170Z,20.10
2018-05-11T04:52:55.458Z,19.07
2018-05-11T04:55:23.774Z,16.63
2018-05-11T04:57:52.050Z,18.97
2018-05-11T05:00:20.353Z,19.15
2018-05-11T05:02:48.712Z,21.40
2018-05-11T05:05:16.971Z,20.17
2018-05-11T05:07:46.074Z,18.13
2018-05-11T05:10:14.396Z,17.87
2018-05-11T05:12:42.773Z,19.67
2018-05-11T05:15:11.818Z,17.43
2018-05-11T05:17:40.193Z,18.00
2018-05-11T05:20:09.224Z,16.40
2018-05-11T05:22:37.474Z,19.70
2018-05-11T05:25:06.680Z,19.80
2018-05-11T05:27:34.943Z,17.67
2018-05-11T05:30:03.218Z,18.60
2018-05-11T05:32:31.510Z,21.47
2018-05-11T05:34:59.800Z,18.07
2018-05-11T05:37:28.067Z,23.43
2018-05-11T05:39:56.451Z,21.93
2018-05-11T05:42:24.758Z,19.10
2018-05-11T05:44:53.129Z,21.40
2018-05-11T05:47:21.407Z,17.57
2018-05-11T05:49:49.699Z,20.20
2018-05-11T05:52:17.996Z,20.53
2018-05-11T05:54:47.106Z,17.57
2018-05-11T05:57:15.410Z,19.53
2018-05-11T05:59:43.687Z,20.13
2018-05-11T06:02:11.986Z,19.67
2018-05-11T06:04:40.291Z,19.23
2018-05-11T06:07:08.561Z,21.07
2018-05-11T06:09:36.853Z,17.40
2018-05-11T06:12:05.104Z,17.57
2018-05-11T06:14:33.417Z,20.47
2018-05-11T06:17:02.462Z,19.03
2018-05-11T06:19:30.830Z,20.40
2018-05-11T06:21:59.163Z,17.27
2018-05-11T06:24:27.453Z,18.03
2018-05-11T06:26:55.803Z,17.33
2018-05-11T06:29:24.990Z,17.58
2018-05-11T06:31:54.079Z,19.17
2018-05-11T06:34:22.331Z,19.37
2018-05-11T06:36:50.584Z,17.03
2018-05-11T06:39:19.664Z,18.27
2018-05-11T06:41:47.947Z,17.40
2018-05-11T06:44:17.183Z,19.27
2018-05-11T06:46:46.253Z,20.80
2018-05-11T06:49:14.756Z,19.43
2018-05-11T06:51:43.058Z,20.50
2018-05-11T06:54:11.348Z,20.20
2018-05-11T06:56:39.674Z,21.63
2018-05-11T06:59:08.807Z,17.90
2018-05-11T07:01:37.291Z,15.13
2018-05-11T07:04:05.451Z,18.13
2018-05-11T07:06:34.508Z,22.33
2018-05-11T07:09:02.772Z,15.63
2018-05-11T07:11:31.049Z,16.90
2018-05-11T07:14:00.076Z,19.13
2018-05-11T07:16:28.409Z,18.93
2018-05-11T07:18:56.673Z,17.07
2018-05-11T07:21:25.040Z,15.90
2018-05-11T07:23:54.143Z,16.20
2018-05-11T07:26:22.447Z,17.53
2018-05-11T07:28:50.718Z,19.50
2018-05-11T07:31:19.790Z,15.37
2018-05-11T07:33:48.136Z,20.17
2018-05-11T07:36:16.444Z,24.70
2018-05-11T07:38:44.759Z,16.83
2018-05-11T07:41:13.037Z,17.77
2018-05-11T07:43:41.284Z,16.37
2018-05-11T07:46:10.343Z,18.63
2018-05-11T07:48:38.777Z,19.87
2018-05-11T07:51:07.834Z,17.67
2018-05-11T07:53:36.130Z,18.97
2018-05-11T07:56:07.349Z,20.80
2018-05-11T07:58:36.383Z,17.07
2018-05-11T08:01:04.700Z,18.93
2018-05-11T08:03:32.961Z,18.57
2018-05-11T08:06:01.342Z,21.10
2018-05-11T08:08:29.615Z,22.20
2018-05-11T08:10:58.718Z,21.33
2018-05-11T08:13:27.829Z,20.97
2018-05-11T08:15:56.894Z,17.83
2018-05-11T08:18:25.257Z,19.30
2018-05-11T08:20:53.511Z,21.90
2018-05-11T08:23:22.557Z,21.77
2018-05-11T08:25:50.823Z,19.73
2018-05-11T08:28:19.889Z,18.50
2018-05-11T08:30:48.144Z,22.30
2018-05-11T08:33:16.471Z,18.77
2018-05-11T08:35:44.765Z,19.10
2018-05-11T08:38:13.016Z,19.20
2018-05-11T08:40:41.267Z,21.30
2018-05-11T08:43:10.341Z,21.97
2018-05-11T08:45:38.601Z,19.60
2018-05-11T08:48:06.867Z,17.37
2018-05-11T08:50:35.922Z,18.27
2018-05-11T08:53:04.237Z,19.87
2018-05-11T08:55:32.514Z,19.65
2018-05-11T08:58:00.792Z,18.73
2018-05-11T09:00:29.066Z,18.30
2018-05-11T09:02:57.961Z,20.27
2018-05-11T09:05:26.246Z,17.70
2018-05-11T09:07:55.284Z,15.60
2018-05-11T09:10:23.637Z,16.97
2018-05-11T09:12:52.714Z,14.67
2018-05-11T09:15:21.924Z,18.70
2018-05-11T09:17:55.464Z,19.57
2018-05-11T09:20:24.711Z,16.80
2018-05-11T09:22:52.964Z,18.07
2018-05-11T09:25:22.072Z,16.87
2018-05-11T09:27:50.540Z,15.87
2018-05-11T09:30:18.848Z,14.93
2018-05-11T09:32:47.225Z,14.90
2018-05-11T09:35:15.472Z,16.70
2018-05-11T09:37:45.187Z,17.57
2018-05-11T09:40:14.466Z,14.43
2018-05-11T09:42:43.541Z,14.40
2018-05-11T09:45:13.547Z,14.50
2018-05-11T09:47:43.144Z,12.93
2018-05-11T09:50:12.699Z,14.37
2018-05-11T09:52:41.643Z,13.75
2018-05-11T09:55:09.971Z,13.93
2018-05-11T09:57:38.216Z,13.73
2018-05-11T10:00:06.542Z,13.23
2018-05-11T10:02:35.579Z,14.50
2018-05-11T10:05:03.830Z,13.50
2018-05-11T10:07:32.864Z,14.33
2018-05-11T10:10:01.130Z,15.37
2018-05-11T10:12:30.173Z,13.10
2018-05-11T10:14:58.472Z,14.23
2018-05-11T10:17:26.748Z,13.63
2018-05-11T10:19:55.074Z,12.23
2018-05-11T10:22:23.377Z,13.07
2018-05-11T10:24:51.715Z,12.93
2018-05-11T10:27:20.727Z,12.90
2018-05-11T10:29:49.104Z,12.60
2018-05-11T10:32:20.139Z,13.23
2018-05-11T10:34:48.658Z,12.40
2018-05-11T10:37:17.415Z,13.60
2018-05-11T10:39:45.738Z,12.23
2018-05-11T10:42:14.077Z,13.77
2018-05-11T10:44:43.663Z,12.33
2018-05-11T10:47:12.894Z,13.13
2018-05-11T10:49:44.230Z,13.30
2018-05-11T10:52:12.565Z,13.33
2018-05-11T10:54:41.586Z,12.67
2018-05-11T10:57:10.368Z,11.47
2018-05-11T10:59:38.742Z,13.93
2018-05-11T11:02:06.983Z,11.50
2018-05-11T11:04:35.253Z,11.60
2018-05-11T11:07:03.513Z,12.97
2018-05-11T11:09:34.528Z,14.93
2018-05-11T11:12:03.477Z,15.43
2018-05-11T11:14:32.116Z,13.40
2018-05-11T11:17:01.538Z,14.07
2018-05-11T11:19:29.976Z,11.73
2018-05-11T11:21:59.428Z,11.80
2018-05-11T11:24:30.810Z,11.50
2018-05-11T11:27:00.265Z,12.20
2018-05-11T11:29:29.353Z,13.20
2018-05-11T11:31:57.882Z,11.57
2018-05-11T11:34:26.363Z,12.73
2018-05-11T11:36:54.586Z,13.02
2018-05-11T11:39:22.863Z,13.00
2018-05-11T11:41:51.147Z,12.40
2018-05-11T11:44:27.612Z,12.17
2018-05-11T11:46:57.488Z,11.30
2018-05-11T11:49:28.028Z,12.00
2018-05-11T11:51:57.031Z,11.88
2018-05-11T11:54:26.692Z,12.40
2018-05-11T11:56:56.061Z,12.47
2018-05-11T11:59:24.359Z,11.97
2018-05-11T12:01:52.676Z,11.23
2018-05-11T12:04:21.996Z,11.60
2018-05-11T12:06:50.325Z,13.17
2018-05-11T12:09:19.414Z,12.27
2018-05-11T12:11:48.447Z,10.60
2018-05-11T12:14:16.844Z,10.27
2018-05-11T12:16:45.513Z,10.33
2018-05-11T12:19:14.675Z,10.90
2018-05-11T12:21:44.003Z,9.03
2018-05-11T12:24:12.351Z,9.10
2018-05-11T12:26:40.948Z,9.03
2018-05-11T12:29:09.222Z,8.30
2018-05-11T12:31:38.349Z,7.43
2018-05-11T12:34:06.742Z,8.67
2018-05-11T12:36:34.991Z,7.10
2018-05-11T12:39:03.251Z,8.67
2018-05-11T12:41:31.517Z,8.13
2018-05-11T12:43:59.802Z,8.37
2018-05-11T12:46:28.105Z,6.97
2018-05-11T12:48:56.484Z,7.03
2018-05-11T12:51:24.740Z,6.07
2018-05-11T12:53:53.795Z,5.50
2018-05-11T12:56:23.636Z,8.00
2018-05-11T12:58:51.900Z,5.90
2018-05-11T13:01:20.192Z,8.97
2018-05-11T13:03:48.490Z,8.80
2018-05-11T13:06:16.735Z,6.93
2018-05-11T13:08:45.786Z,6.67
2018-05-11T13:11:14.045Z,7.73
2018-05-11T13:13:43.081Z,11.27
2018-05-11T13:16:11.331Z,7.60
2018-05-11T13:18:40.386Z,4.95
2018-05-11T13:21:08.718Z,6.97
2018-05-11T13:23:37.031Z,5.03
2018-05-11T13:26:06.070Z,5.17
2018-05-11T13:28:34.340Z,5.53
2018-05-11T13:31:03.094Z,5.63
2018-05-11T13:33:31.425Z,5.27
2018-05-11T13:36:00.439Z,6.77
2018-05-11T13:38:29.487Z,4.47
2018-05-11T13:40:57.774Z,5.63
2018-05-11T13:43:26.055Z,4.87
2018-05-11T13:45:54.363Z,4.87
2018-05-11T13:48:22.724Z,4.27
2018-05-11T13:50:50.978Z,4.33
2018-05-11T13:53:20.004Z,4.33
2018-05-11T13:55:48.268Z,5.30
2018-05-11T13:58:16.550Z,3.87
2018-05-11T14:00:44.816Z,4.47
2018-05-11T14:03:13.103Z,5.23
2018-05-11T14:05:41.373Z,5.93
2018-05-11T14:08:09.648Z,3.83
2018-05-11T14:10:38.667Z,5.33
2018-05-11T14:13:06.949Z,5.53
2018-05-11T14:15:35.970Z,4.20
2018-05-11T14:18:04.345Z,4.90
2018-05-11T14:20:35.036Z,3.80
2018-05-11T14:23:03.388Z,5.33
2018-05-11T14:25:31.713Z,4.53
2018-05-11T14:28:00.088Z,5.13
2018-05-11T14:30:28.366Z,4.07
2018-05-11T14:32:56.683Z,3.13
2018-05-11T14:35:29.552Z,4.00
2018-05-11T14:38:00.886Z,4.20
2018-05-11T14:40:31.122Z,3.80
2018-05-11T14:43:00.505Z,4.07
2018-05-11T14:45:30.132Z,4.70
2018-05-11T14:47:58.926Z,3.80
2018-05-11T14:50:27.218Z,6.00
2018-05-11T14:52:56.466Z,5.60
2018-05-11T14:55:27.091Z,5.03
2018-05-11T14:57:56.354Z,4.40
2018-05-11T15:00:27.927Z,4.40
2018-05-11T15:02:58.216Z,3.00
2018-05-11T15:05:27.862Z,3.93
2018-05-11T15:07:57.123Z,4.20
2018-05-11T15:10:25.438Z,3.10
2018-05-11T15:12:55.415Z,3.60
2018-05-11T15:15:23.701Z,4.67
2018-05-11T15:17:52.051Z,3.40
2018-05-11T15:20:20.303Z,4.17
2018-05-11T15:22:48.589Z,3.60
2018-05-11T15:25:17.155Z,3.50
2018-05-11T15:27:45.462Z,3.60
2018-05-11T15:30:13.707Z,4.10
2018-05-11T15:32:42.843Z,3.83
2018-05-11T15:35:11.857Z,4.77
2018-05-11T15:37:40.886Z,3.93
2018-05-11T15:40:09.149Z,4.40
2018-05-11T15:42:38.167Z,3.23
2018-05-11T15:45:06.419Z,3.35
2018-05-11T15:47:34.687Z,4.23
2018-05-11T15:50:02.961Z,4.47
2018-05-11T15:52:31.308Z,3.23
2018-05-11T15:55:00.400Z,5.43
2018-05-11T15:57:28.655Z,3.93
2018-05-11T15:59:56.929Z,3.13
2018-05-11T16:02:25.241Z,4.50
2018-05-11T16:04:53.527Z,6.15
2018-05-11T16:07:22.271Z,3.50
2018-05-11T16:10:03.662Z,3.30
2018-05-11T16:12:32.303Z,5.10
2018-05-11T16:15:00.588Z,3.27
2018-05-11T16:17:28.894Z,4.73
2018-05-11T16:19:57.163Z,12.03
2018-05-11T16:22:25.475Z,6.17
2018-05-11T16:24:53.732Z,7.27
2018-05-11T16:27:22.770Z,3.50
2018-05-11T16:29:51.021Z,4.20
2018-05-11T16:32:20.053Z,4.93
2018-05-11T16:34:48.314Z,3.50
2018-05-11T16:37:16.605Z,3.67
2018-05-11T16:39:45.646Z,4.13
2018-05-11T16:42:13.906Z,3.25
2018-05-11T16:44:42.940Z,3.23
2018-05-11T16:47:11.195Z,3.53
2018-05-11T16:49:40.221Z,4.67
2018-05-11T16:52:09.252Z,5.80
2018-05-11T16:54:37.495Z,4.53
2018-05-11T16:57:05.752Z,3.90
2018-05-11T16:59:34.030Z,3.77
2018-05-11T17:02:02.305Z,3.10
2018-05-11T17:04:30.570Z,2.97
2018-05-11T17:06:58.840Z,4.13
2018-05-11T17:09:28.371Z,3.87
2018-05-11T17:11:56.770Z,4.00
2018-05-11T17:14:25.076Z,4.70
2018-05-11T17:16:54.102Z,4.50
2018-05-11T17:19:22.382Z,3.10
2018-05-11T17:21:50.653Z,4.83
2018-05-11T17:24:19.703Z,3.50
2018-05-11T17:26:48.038Z,3.93
2018-05-11T17:29:16.370Z,5.43
2018-05-11T17:31:44.669Z,3.30
2018-05-11T17:34:12.912Z,3.53
2018-05-11T17:36:41.193Z,4.07
2018-05-11T17:39:09.459Z,6.97
2018-05-11T17:41:37.730Z,6.07
2018-05-11T17:44:05.989Z,4.10
2018-05-11T17:46:35.008Z,4.97
2018-05-11T17:49:03.330Z,4.87
2018-05-11T17:51:31.603Z,4.12
2018-05-11T17:53:59.851Z,3.37
2018-05-11T17:56:28.161Z,4.63
2018-05-11T17:58:56.468Z,4.23
2018-05-11T18:01:24.762Z,4.80
2018-05-11T18:03:53.029Z,4.40
2018-05-11T18:06:22.147Z,5.03
2018-05-11T18:08:52.193Z,3.93
2018-05-11T18:11:20.478Z,3.87
2018-05-11T18:13:48.807Z,5.27
2018-05-11T18:16:17.171Z,5.43
2018-05-11T18:18:45.484Z,3.43
2018-05-11T18:21:13.740Z,4.17
2018-05-11T18:23:42.025Z,5.07
2018-05-11T18:26:10.321Z,3.70
2018-05-11T18:28:38.713Z,4.63
2018-05-11T18:31:06.977Z,4.33
2018-05-11T18:33:35.991Z,4.37
2018-05-11T18:36:05.106Z,4.63
2018-05-11T18:38:34.331Z,4.27
2018-05-11T18:41:05.450Z,4.30
2018-05-11T18:43:34.910Z,6.13
2018-05-11T18:46:06.387Z,4.70
2018-05-11T18:48:34.948Z,5.37
2018-05-11T18:51:03.154Z,6.53
2018-05-11T18:53:31.759Z,7.40
2018-05-11T18:56:01.195Z,5.63
2018-05-11T18:58:29.698Z,7.00
2018-05-11T19:00:57.978Z,6.03
2018-05-11T19:03:26.266Z,6.73
2018-05-11T19:05:54.534Z,9.67
2018-05-11T19:08:22.845Z,6.60
2018-05-11T19:10:51.218Z,6.37
2018-05-11T19:13:20.320Z,5.37
2018-05-11T19:15:48.713Z,5.37
2018-05-11T19:18:17.012Z,6.53
2018-05-11T19:20:45.287Z,7.80
2018-05-11T19:23:13.593Z,7.40
2018-05-11T19:25:43.917Z,7.30
2018-05-11T19:28:12.943Z,8.30
2018-05-11T19:30:41.226Z,7.40
2018-05-11T19:33:10.258Z,6.63
2018-05-11T19:35:38.498Z,9.83
2018-05-11T19:38:06.799Z,8.97
2018-05-11T19:40:35.913Z,7.60
2018-05-11T19:43:04.268Z,8.27
2018-05-11T19:45:32.618Z,7.60
2018-05-11T19:48:00.910Z,9.87
2018-05-11T19:50:29.149Z,8.00
2018-05-11T19:52:57.425Z,8.93
2018-05-11T19:55:25.785Z,10.40
2018-05-11T19:57:54.187Z,9.63
2018-05-11T20:00:22.468Z,9.77
2018-05-11T20:02:50.854Z,8.87
2018-05-11T20:05:19.136Z,9.30
2018-05-11T20:07:48.175Z,8.80
2018-05-11T20:10:16.518Z,9.10
2018-05-11T20:12:44.810Z,8.33
2018-05-11T20:15:13.941Z,9.17
2018-05-11T20:17:42.972Z,11.20
2018-05-11T20:20:11.249Z,9.37
2018-05-11T20:22:39.535Z,8.17
2018-05-11T20:25:07.915Z,8.63
2018-05-11T20:27:36.195Z,7.20
2018-05-11T20:30:05.238Z,8.40
2018-05-11T20:32:33.598Z,9.07
2018-05-11T20:35:01.841Z,8.40
2018-05-11T20:37:30.289Z,8.13
2018-05-11T20:39:59.409Z,8.07
2018-05-11T20:42:27.695Z,6.93
2018-05-11T20:44:56.824Z,7.93
2018-05-11T20:47:25.120Z,8.93
2018-05-11T20:49:53.380Z,9.77
2018-05-11T20:52:21.648Z,6.77
2018-05-11T20:54:49.939Z,6.73
2018-05-11T20:57:18.987Z,8.10
2018-05-11T20:59:47.354Z,7.17
2018-05-11T21:02:16.373Z,8.80
2018-05-11T21:04:44.676Z,7.13
2018-05-11T21:07:13.816Z,6.37
2018-05-11T21:09:42.097Z,6.00
2018-05-11T21:12:10.380Z,5.97
2018-05-11T21:14:38.852Z,6.30
2018-05-11T21:17:07.050Z,6.63
2018-05-11T21:19:35.309Z,6.30
2018-05-11T21:22:04.320Z,5.47
2018-05-11T21:24:33.374Z,5.73
2018-05-11T21:27:01.641Z,6.72
2018-05-11T21:29:29.905Z,6.70
2018-05-11T21:31:59.137Z,6.57
2018-05-11T21:34:27.419Z,7.33
2018-05-11T21:36:55.803Z,5.77
2018-05-11T21:39:24.930Z,6.67
2018-05-11T21:41:53.189Z,6.27
2018-05-11T21:44:21.455Z,5.43
2018-05-11T21:46:49.707Z,6.73
2018-05-11T21:49:17.993Z,7.30
2018-05-11T21:51:46.266Z,5.00
2018-05-11T21:54:15.322Z,7.57
2018-05-11T21:56:43.583Z,5.80
2018-05-11T21:59:11.837Z,6.57
2018-05-11T22:01:41.536Z,4.53
2018-05-11T22:04:09.792Z,5.17
2018-05-11T22:06:38.056Z,7.63
2018-05-11T22:09:07.108Z,5.23
2018-05-11T22:11:35.385Z,5.47
2018-05-11T22:14:03.635Z,5.00
2018-05-11T22:16:32.659Z,5.77
2018-05-11T22:19:00.915Z,4.90
2018-05-11T22:21:29.206Z,5.83
2018-05-11T22:23:57.501Z,5.30
2018-05-11T22:26:25.784Z,4.83
2018-05-11T22:28:54.069Z,6.73
2018-05-11T22:31:22.333Z,4.57
2018-05-11T22:33:50.598Z,6.30
2018-05-11T22:36:18.865Z,6.67
2018-05-11T22:38:48.182Z,5.67
2018-05-11T22:41:16.479Z,7.63
2018-05-11T22:43:44.960Z,4.77
2018-05-11T22:46:14.007Z,5.10
2018-05-11T22:48:42.283Z,5.10
2018-05-11T22:51:10.543Z,5.80
2018-05-11T22:53:39.590Z,5.57
2018-05-11T22:56:07.845Z,5.40
2018-05-11T22:58:36.859Z,7.10
2018-05-11T23:01:05.213Z,5.37
2018-05-11T23:03:33.525Z,7.87
2018-05-11T23:06:01.809Z,5.17
2018-05-11T23:08:30.131Z,6.40
2018-05-11T23:10:58.406Z,6.10
2018-05-11T23:13:27.430Z,5.30
2018-05-11T23:15:55.846Z,6.37
2018-05-11T23:18:24.217Z,6.17
2018-05-11T23:20:52.514Z,7.63
2018-05-11T23:23:20.775Z,6.27
2018-05-11T23:25:49.803Z,5.57
2018-05-11T23:28:18.070Z,5.43
2018-05-11T23:30:47.110Z,5.43
2018-05-11T23:33:15.392Z,6.47
2018-05-11T23:35:43.648Z,5.83
2018-05-11T23:38:12.035Z,5.03
2018-05-11T23:40:40.291Z,5.70
2018-05-11T23:43:08.544Z,5.60
2018-05-11T23:45:36.843Z,5.47
2018-05-11T23:48:05.166Z,5.90
2018-05-11T23:50:33.593Z,5.30
2018-05-11T23:53:01.888Z,5.30
2018-05-11T23:55:30.177Z,7.40
2018-05-11T23:57:58.457Z,6.57
